CheckWX is a tool to help pilots better visualize weather data.  It is not intended as a substitute for an official pre-flight weather briefing.

14:27:39 UTC

KMGW METAR
Morgantown Municipal-Walter L Bill Hart Field Airport
Morgantown, West Virginia, USA
Current

35 mins ago

KMGW 221353Z 00000KT 10SM OVC028 11/07 A3027 RMK AO2 SLP251 T01060072
Observed
Apr-22 @ 13:53 UTC
Visibility
10 SM
Flight Rules
MVFR
Cloud Levels
  • Overcast at 2,800' AGL
Temperature
11°C / 52°F
Dewpoint
C / 45°F
Humidity
77%
Altimeter
30.27" Hg
Pressure
1025.02 hPa
Previous

2 hours ago

KMGW 221253Z 00000KT 10SM OVC029 09/07 A3026 RMK AO2 SLP251 T00890072
Observed
Apr-22 @ 12:53 UTC
Visibility
10 SM
Flight Rules
MVFR
Cloud Levels
  • Overcast at 2,900' AGL
Temperature
C / 48°F
Dewpoint
C / 45°F
Humidity
87%
Altimeter
30.26" Hg
Pressure
1024.72 hPa
Previous

3 hours ago

KMGW 221153Z 00000KT 5SM BR OVC031 07/07 A3026 RMK AO2 SLP251 T00720067 10089 20061 53017
Observed
Apr-22 @ 11:53 UTC
Visibility
5 SM
Flight Rules
MVFR
Conditions
Mist
Cloud Levels
  • Overcast at 3,100' AGL
Temperature
C / 45°F
Dewpoint
C / 45°F
Humidity
100%
Altimeter
30.26" Hg
Pressure
1024.72 hPa